Terminal Aerodrome Forecast
Issued by NWS Cheyenne, WY

Home | Current Version | Previous Version | Text Only | Print | Product List | Glossary On
Versions: 1 2 3 4 5 6 7 8 9 10 11 12 13 14 15 16 17 18 19 20
000
FTUS45 KCYS 312320
TAFCYS
TAF
KCYS 312320Z 0100/0124 05006KT P6SM BKN090
     FM010300 34005KT P6SM BKN090
     FM011500 14008KT P6SM BKN090
     FM011900 17010G20KT P6SM BKN090=

USA.gov is the U.S. government's official web portal to all federal, state and local government web resources and services.